createdAt,value
2024-03-05T00:09:32.419Z,98986.50
2024-03-05T00:19:34.954Z,98993.09
2024-03-05T00:29:37.683Z,99002.53
2024-03-05T00:39:40.095Z,99014.63
2024-03-05T00:49:42.688Z,99012.69
2024-03-05T00:59:46.427Z,99012.34
2024-03-05T01:09:50.882Z,99010.94
2024-03-05T01:19:53.706Z,99011.78
2024-03-05T01:29:56.305Z,99014.09
2024-03-05T01:39:58.811Z,99016.78
2024-03-05T01:50:03.121Z,99019.38
2024-03-05T02:00:10.908Z,99027.13
2024-03-05T02:10:15.023Z,99046.81
2024-03-05T02:20:18.545Z,99044.75
2024-03-05T02:30:21.740Z,99054.16
2024-03-05T02:40:25.664Z,99061.34
2024-03-05T02:50:28.240Z,99072.09
2024-03-05T03:00:30.831Z,99081.19
2024-03-05T03:10:33.323Z,99080.75
2024-03-05T03:20:36.107Z,99089.81
2024-03-05T03:30:38.547Z,99080.78
2024-03-05T03:40:44.140Z,99107.28
2024-03-05T03:50:46.667Z,99103.84
2024-03-05T04:00:50.441Z,99110.84
2024-03-05T04:10:53.007Z,99115.53
2024-03-05T04:20:55.582Z,99125.72
2024-03-05T04:30:58.481Z,99131.34
2024-03-05T04:41:01.009Z,99134.50
2024-03-05T04:51:03.733Z,99135.38
2024-03-05T05:01:06.369Z,99154.50
2024-03-05T05:11:09.195Z,99159.66
2024-03-05T05:21:11.680Z,99171.75
2024-03-05T05:31:27.696Z,99172.19
2024-03-05T05:41:30.887Z,99179.66
2024-03-05T05:51:34.516Z,99176.25
2024-03-05T06:01:39.003Z,99186.19
2024-03-05T06:11:42.354Z,99182.75
2024-03-05T06:21:45.262Z,99207.00
2024-03-05T06:31:49.044Z,99219.31
2024-03-05T06:41:53.611Z,99221.44
2024-03-05T06:52:19.495Z,99240.69
2024-03-05T07:02:24.863Z,99255.78
2024-03-05T07:12:27.793Z,99267.31
2024-03-05T07:22:30.588Z,99270.91
2024-03-05T07:32:33.444Z,99273.13
2024-03-05T07:42:44.637Z,99277.00
2024-03-05T07:52:48.440Z,99289.44
2024-03-05T08:02:55.912Z,99280.41
2024-03-05T08:12:59.001Z,99280.34
2024-03-05T08:23:01.722Z,99283.38
2024-03-05T08:33:06.456Z,99280.72
2024-03-05T08:43:10.534Z,99275.72
2024-03-05T08:53:13.160Z,99283.16
2024-03-05T09:03:15.738Z,99283.53
2024-03-05T09:13:18.388Z,99293.31
2024-03-05T09:23:20.978Z,99295.16
2024-03-05T09:33:23.615Z,99286.41
2024-03-05T09:43:26.699Z,99297.09
2024-03-05T09:53:30.527Z,99306.59
2024-03-05T10:03:35.406Z,99309.09
2024-03-05T10:13:38.648Z,99312.63
2024-03-05T10:23:41.356Z,99327.94
2024-03-05T10:33:43.961Z,99337.41
2024-03-05T10:43:48.166Z,99328.13
2024-03-05T10:53:51.522Z,99331.06
2024-03-05T11:03:56.568Z,99324.66
2024-03-05T11:14:04.220Z,99328.97
2024-03-05T11:24:08.092Z,99312.69
2024-03-05T11:34:14.362Z,99310.81
2024-03-05T11:44:31.972Z,99311.69
2024-03-05T11:54:37.024Z,99317.03
2024-03-05T12:04:41.114Z,99306.03
2024-03-05T12:14:55.919Z,99311.69
2024-03-05T12:24:59.031Z,99321.69
2024-03-05T12:35:01.944Z,99305.06
2024-03-05T12:45:10.112Z,99302.44
2024-03-05T12:55:13.824Z,99314.88
2024-03-05T13:05:16.466Z,99311.84
2024-03-05T13:15:22.534Z,99305.09
2024-03-05T13:25:29.842Z,99306.59
2024-03-05T13:35:32.699Z,99306.75
2024-03-05T13:45:35.597Z,99306.75
2024-03-05T13:55:38.259Z,99312.63
2024-03-05T14:05:41.860Z,99327.38
2024-03-05T14:15:44.955Z,99324.28
2024-03-05T14:25:48.201Z,99303.56
2024-03-05T14:35:51.835Z,99344.66
2024-03-05T14:45:57.330Z,99339.78
2024-03-05T14:56:00.078Z,99368.78
2024-03-05T15:06:03.814Z,99380.69
2024-03-05T15:16:11.776Z,99388.50
2024-03-05T15:26:15.615Z,99399.63
2024-03-05T15:36:18.414Z,99406.22
2024-03-05T15:46:21.740Z,99405.25
2024-03-05T15:56:36.174Z,99420.34
2024-03-05T16:06:40.809Z,99423.53
2024-03-05T16:16:44.352Z,99430.19
2024-03-05T16:26:48.316Z,99436.97
2024-03-05T16:36:50.865Z,99444.63
2024-03-05T16:46:54.984Z,99450.16
2024-03-05T16:56:57.904Z,99466.22
2024-03-05T17:07:00.999Z,99477.09
2024-03-05T17:17:05.382Z,99474.09
2024-03-05T17:27:07.944Z,99491.34
2024-03-05T17:37:10.628Z,99499.16
2024-03-05T17:47:13.126Z,99518.06
2024-03-05T17:57:16.519Z,99531.16
2024-03-05T18:07:19.469Z,99535.19
2024-03-05T18:17:22.561Z,99547.75
2024-03-05T18:27:25.796Z,99555.09
2024-03-05T18:37:28.609Z,99565.38
2024-03-05T18:47:31.318Z,99564.94
2024-03-05T18:57:34.267Z,99580.19
2024-03-05T19:07:37.264Z,99582.19
2024-03-05T19:17:41.923Z,99582.94
2024-03-05T19:27:44.979Z,99587.84
2024-03-05T19:37:49.032Z,99594.47
2024-03-05T19:47:52.597Z,99592.00
2024-03-05T19:57:55.736Z,99602.72
2024-03-05T20:07:58.822Z,99609.78
2024-03-05T20:18:02.269Z,99610.97
2024-03-05T20:28:11.003Z,99610.03
2024-03-05T20:38:15.107Z,99619.84
2024-03-05T20:48:18.150Z,99634.44
2024-03-05T20:58:22.122Z,99642.66
2024-03-05T21:08:24.756Z,99649.50
2024-03-05T21:18:27.715Z,99642.84
2024-03-05T21:28:31.053Z,99646.28
2024-03-05T21:38:33.620Z,99645.81
2024-03-05T21:48:36.329Z,99649.34
2024-03-05T21:58:43.320Z,99650.84
2024-03-05T22:08:48.698Z,99651.28
2024-03-05T22:18:51.212Z,99646.09
2024-03-05T22:28:54.080Z,99651.06
2024-03-05T22:38:59.713Z,99655.44
2024-03-05T22:49:03.043Z,99667.78
2024-03-05T22:59:05.540Z,99675.53
2024-03-05T23:09:08.187Z,99675.69
2024-03-05T23:19:12.468Z,99685.66
2024-03-05T23:29:16.373Z,99676.16
2024-03-05T23:39:19.490Z,99673.25
2024-03-05T23:49:22.648Z,99676.03
2024-03-05T23:59:25.146Z,99677.16
